Doha, Qatar

7:27 AM AST on August 27, 2016 (GMT +0300)
Doha International | | Change Station

Elev 33 ft 25.26 °N, 51.57 °E | Updated 27 minutes ago

Clear
Clear
93 °F
Feels Like 125 °F
N
6
Wind Variable Wind from East

Today
High -- | Low -- °F
--% Chance of Precip.
Yesterday
High -- | Low -- °F
Precip. -- in
Pressure 29.68 in
Visibility 5.6 miles
Clouds
Heat Index 125 °F
Dew Point 86 °F
Humidity 79%
Rainfall 0.00 in
Snow Depth Not available.
5:12 AM 5:57 PM
Waning Crescent, 28% visible
METAR OTBD 270400Z 09005KT 9000 NSC 34/30 Q1005 NOSIG
Pressure 29.68 in
Visibility 5.6 miles
Clouds
Heat Index 125 °F
Dew Point 86 °F
Humidity 79%
Rainfall 0.00 in
Snow Depth Not available.
5:12 AM 5:57 PM
Waning Crescent, 28% visible
METAR OTBD 270400Z 09005KT 9000 NSC 34/30 Q1005 NOSIG

10-Day Weather Forecast

No radar image for this location.
×

Almanac

Astronomy

Aug. 27, 2016 Rise Set
Actual Time
Civil Twilight
Nautical Twilight
Astronomical Twilight
Moon
Length of Visible Light
Length of Day
Tomorrow will be .
, % of the Moon is Illuminated

Today's Extremes

Country Highs Country Lows

Community

WunderPhotos

Upload Photos

1,935,299 photos uploaded!

WunderBlog® & News

Nearby

Air Quality

  Air Quality AQ Index Pollutant
Not available.

Snow Depth

Station Depth Elevation

Earthquake Activity

City Distance Mag. Time & Date
Minimum magnitude displayed is 2.5.

Coastal Water Temperatures

Place Temperature

Stations

Nearby Weather Stations

Station Location Temp. Windchill Dew Point Humidity Wind Precip. Elev Updated Type